sensor_id;sensor_type;location;lat;lon;timestamp;P1;durP1;ratioP1;P2;durP2;ratioP2
15655;SDS011;7928;43.614;1.456;2023-04-24T00:01:24;6.43;;;2.07;;
15655;SDS011;7928;43.614;1.456;2023-04-24T00:03:51;9.03;;;1.83;;
15655;SDS011;7928;43.614;1.456;2023-04-24T00:06:18;7.17;;;2.57;;
15655;SDS011;7928;43.614;1.456;2023-04-24T00:08:46;6.30;;;1.93;;
15655;SDS011;7928;43.614;1.456;2023-04-24T00:11:13;5.63;;;2.50;;
15655;SDS011;7928;43.614;1.456;2023-04-24T00:13:40;7.07;;;2.37;;
15655;SDS011;7928;43.614;1.456;2023-04-24T00:16:07;4.43;;;1.93;;
15655;SDS011;7928;43.614;1.456;2023-04-24T00:18:34;6.20;;;2.30;;
15655;SDS011;7928;43.614;1.456;2023-04-24T00:21:01;7.20;;;2.33;;
15655;SDS011;7928;43.614;1.456;2023-04-24T00:23:28;7.80;;;2.57;;
15655;SDS011;7928;43.614;1.456;2023-04-24T00:25:56;7.03;;;2.30;;
15655;SDS011;7928;43.614;1.456;2023-04-24T00:28:23;4.20;;;2.17;;
15655;SDS011;7928;43.614;1.456;2023-04-24T00:30:50;4.23;;;2.17;;
15655;SDS011;7928;43.614;1.456;2023-04-24T00:33:17;4.90;;;2.33;;
15655;SDS011;7928;43.614;1.456;2023-04-24T00:35:44;5.03;;;2.33;;
15655;SDS011;7928;43.614;1.456;2023-04-24T00:38:11;4.30;;;2.80;;
15655;SDS011;7928;43.614;1.456;2023-04-24T00:40:38;7.17;;;2.73;;
15655;SDS011;7928;43.614;1.456;2023-04-24T00:43:07;6.00;;;2.63;;
15655;SDS011;7928;43.614;1.456;2023-04-24T00:45:34;5.93;;;2.43;;
15655;SDS011;7928;43.614;1.456;2023-04-24T00:48:01;4.90;;;2.50;;
15655;SDS011;7928;43.614;1.456;2023-04-24T00:50:28;5.47;;;2.87;;
15655;SDS011;7928;43.614;1.456;2023-04-24T00:52:55;9.47;;;3.40;;
15655;SDS011;7928;43.614;1.456;2023-04-24T00:55:23;8.33;;;3.97;;
15655;SDS011;7928;43.614;1.456;2023-04-24T00:57:51;7.93;;;4.63;;
15655;SDS011;7928;43.614;1.456;2023-04-24T01:00:20;9.90;;;4.47;;
15655;SDS011;7928;43.614;1.456;2023-04-24T01:02:47;6.27;;;3.87;;
15655;SDS011;7928;43.614;1.456;2023-04-24T01:05:15;6.60;;;4.30;;
15655;SDS011;7928;43.614;1.456;2023-04-24T01:07:43;8.17;;;4.43;;
15655;SDS011;7928;43.614;1.456;2023-04-24T01:10:13;7.57;;;3.53;;
15655;SDS011;7928;43.614;1.456;2023-04-24T01:12:42;6.07;;;3.90;;
15655;SDS011;7928;43.614;1.456;2023-04-24T01:15:09;7.20;;;3.47;;
15655;SDS011;7928;43.614;1.456;2023-04-24T01:17:38;5.53;;;3.37;;
15655;SDS011;7928;43.614;1.456;2023-04-24T01:20:05;8.10;;;3.97;;
15655;SDS011;7928;43.614;1.456;2023-04-24T01:22:35;6.47;;;3.40;;
15655;SDS011;7928;43.614;1.456;2023-04-24T01:25:02;6.67;;;3.27;;
15655;SDS011;7928;43.614;1.456;2023-04-24T01:27:30;6.07;;;2.67;;
15655;SDS011;7928;43.614;1.456;2023-04-24T01:29:58;6.57;;;2.87;;
15655;SDS011;7928;43.614;1.456;2023-04-24T01:32:25;7.83;;;3.17;;
15655;SDS011;7928;43.614;1.456;2023-04-24T01:34:52;6.53;;;2.70;;
15655;SDS011;7928;43.614;1.456;2023-04-24T01:37:20;7.40;;;2.60;;
15655;SDS011;7928;43.614;1.456;2023-04-24T01:39:48;6.27;;;2.27;;
15655;SDS011;7928;43.614;1.456;2023-04-24T01:42:15;8.57;;;3.03;;
15655;SDS011;7928;43.614;1.456;2023-04-24T01:44:42;7.87;;;2.83;;
15655;SDS011;7928;43.614;1.456;2023-04-24T01:47:10;5.43;;;2.00;;
15655;SDS011;7928;43.614;1.456;2023-04-24T01:49:37;7.00;;;2.23;;
15655;SDS011;7928;43.614;1.456;2023-04-24T01:52:04;7.37;;;2.03;;
15655;SDS011;7928;43.614;1.456;2023-04-24T01:54:32;4.80;;;1.80;;
15655;SDS011;7928;43.614;1.456;2023-04-24T01:57:00;4.70;;;1.70;;
15655;SDS011;7928;43.614;1.456;2023-04-24T01:59:28;6.17;;;2.17;;
15655;SDS011;7928;43.614;1.456;2023-04-24T02:01:56;6.57;;;2.40;;
15655;SDS011;7928;43.614;1.456;2023-04-24T02:04:23;4.83;;;1.63;;
15655;SDS011;7928;43.614;1.456;2023-04-24T02:06:49;4.90;;;2.00;;
15655;SDS011;7928;43.614;1.456;2023-04-24T02:09:16;6.40;;;2.07;;
15655;SDS011;7928;43.614;1.456;2023-04-24T02:11:43;8.07;;;2.53;;
15655;SDS011;7928;43.614;1.456;2023-04-24T02:14:12;4.73;;;1.70;;
15655;SDS011;7928;43.614;1.456;2023-04-24T02:16:39;4.97;;;2.00;;
15655;SDS011;7928;43.614;1.456;2023-04-24T02:19:06;5.40;;;1.90;;
15655;SDS011;7928;43.614;1.456;2023-04-24T02:21:33;6.97;;;1.87;;
15655;SDS011;7928;43.614;1.456;2023-04-24T02:24:00;5.10;;;1.83;;
15655;SDS011;7928;43.614;1.456;2023-04-24T02:26:27;5.90;;;2.17;;
15655;SDS011;7928;43.614;1.456;2023-04-24T02:28:56;8.03;;;1.87;;
15655;SDS011;7928;43.614;1.456;2023-04-24T02:31:24;5.93;;;1.40;;
15655;SDS011;7928;43.614;1.456;2023-04-24T02:33:51;6.50;;;2.10;;
15655;SDS011;7928;43.614;1.456;2023-04-24T02:36:18;8.83;;;1.90;;
15655;SDS011;7928;43.614;1.456;2023-04-24T02:38:45;7.83;;;2.23;;
15655;SDS011;7928;43.614;1.456;2023-04-24T02:41:12;5.10;;;2.20;;
15655;SDS011;7928;43.614;1.456;2023-04-24T02:43:39;5.67;;;1.63;;
15655;SDS011;7928;43.614;1.456;2023-04-24T02:46:06;8.40;;;2.40;;
15655;SDS011;7928;43.614;1.456;2023-04-24T02:48:34;6.47;;;1.50;;
15655;SDS011;7928;43.614;1.456;2023-04-24T02:51:01;6.77;;;1.70;;
15655;SDS011;7928;43.614;1.456;2023-04-24T02:53:28;6.60;;;1.40;;
15655;SDS011;7928;43.614;1.456;2023-04-24T02:55:56;6.10;;;1.70;;
15655;SDS011;7928;43.614;1.456;2023-04-24T02:58:23;4.83;;;1.33;;
15655;SDS011;7928;43.614;1.456;2023-04-24T03:00:52;6.83;;;1.40;;
15655;SDS011;7928;43.614;1.456;2023-04-24T03:03:20;4.13;;;1.30;;
15655;SDS011;7928;43.614;1.456;2023-04-24T03:05:48;5.80;;;1.47;;
15655;SDS011;7928;43.614;1.456;2023-04-24T03:08:15;5.37;;;1.50;;
15655;SDS011;7928;43.614;1.456;2023-04-24T03:10:43;6.30;;;1.53;;
15655;SDS011;7928;43.614;1.456;2023-04-24T03:13:10;5.17;;;1.17;;
15655;SDS011;7928;43.614;1.456;2023-04-24T03:15:37;4.40;;;1.40;;
15655;SDS011;7928;43.614;1.456;2023-04-24T03:18:04;5.90;;;1.40;;
15655;SDS011;7928;43.614;1.456;2023-04-24T03:20:31;6.30;;;1.63;;
15655;SDS011;7928;43.614;1.456;2023-04-24T03:22:59;7.63;;;1.83;;
15655;SDS011;7928;43.614;1.456;2023-04-24T03:25:26;7.13;;;1.47;;
15655;SDS011;7928;43.614;1.456;2023-04-24T03:27:53;8.20;;;2.10;;
15655;SDS011;7928;43.614;1.456;2023-04-24T03:30:20;4.97;;;1.30;;
15655;SDS011;7928;43.614;1.456;2023-04-24T03:32:47;6.60;;;1.57;;
15655;SDS011;7928;43.614;1.456;2023-04-24T03:35:14;7.20;;;2.07;;
15655;SDS011;7928;43.614;1.456;2023-04-24T03:37:41;6.80;;;1.73;;
15655;SDS011;7928;43.614;1.456;2023-04-24T03:40:10;4.93;;;1.53;;
15655;SDS011;7928;43.614;1.456;2023-04-24T03:42:37;4.27;;;1.30;;
15655;SDS011;7928;43.614;1.456;2023-04-24T03:45:04;3.50;;;1.60;;
15655;SDS011;7928;43.614;1.456;2023-04-24T03:47:32;4.07;;;1.00;;
15655;SDS011;7928;43.614;1.456;2023-04-24T03:49:59;4.97;;;1.27;;
15655;SDS011;7928;43.614;1.456;2023-04-24T03:52:26;9.70;;;2.30;;
15655;SDS011;7928;43.614;1.456;2023-04-24T03:54:53;6.47;;;1.50;;
15655;SDS011;7928;43.614;1.456;2023-04-24T03:57:21;5.17;;;1.57;;
15655;SDS011;7928;43.614;1.456;2023-04-24T03:59:48;3.77;;;1.53;;
15655;SDS011;7928;43.614;1.456;2023-04-24T04:02:15;3.83;;;1.37;;
15655;SDS011;7928;43.614;1.456;2023-04-24T04:04:42;5.07;;;1.37;;
15655;SDS011;7928;43.614;1.456;2023-04-24T04:07:09;7.27;;;2.27;;
15655;SDS011;7928;43.614;1.456;2023-04-24T04:09:38;8.07;;;1.63;;
15655;SDS011;7928;43.614;1.456;2023-04-24T04:12:05;5.63;;;1.60;;
15655;SDS011;7928;43.614;1.456;2023-04-24T04:14:33;6.10;;;1.63;;
15655;SDS011;7928;43.614;1.456;2023-04-24T04:17:00;5.80;;;1.53;;
15655;SDS011;7928;43.614;1.456;2023-04-24T04:19:27;3.67;;;1.10;;
15655;SDS011;7928;43.614;1.456;2023-04-24T04:21:54;4.93;;;1.77;;
15655;SDS011;7928;43.614;1.456;2023-04-24T04:24:21;6.43;;;1.80;;
15655;SDS011;7928;43.614;1.456;2023-04-24T04:26:49;7.30;;;2.00;;
15655;SDS011;7928;43.614;1.456;2023-04-24T04:29:16;6.33;;;1.53;;
15655;SDS011;7928;43.614;1.456;2023-04-24T04:31:44;6.27;;;1.83;;
15655;SDS011;7928;43.614;1.456;2023-04-24T04:34:11;5.53;;;1.20;;
15655;SDS011;7928;43.614;1.456;2023-04-24T04:36:39;8.57;;;1.80;;
15655;SDS011;7928;43.614;1.456;2023-04-24T04:39:06;5.43;;;1.63;;
15655;SDS011;7928;43.614;1.456;2023-04-24T04:41:33;6.57;;;1.80;;
15655;SDS011;7928;43.614;1.456;2023-04-24T04:44:01;6.50;;;1.73;;
15655;SDS011;7928;43.614;1.456;2023-04-24T04:46:30;7.07;;;2.07;;
15655;SDS011;7928;43.614;1.456;2023-04-24T04:49:00;5.90;;;1.87;;
15655;SDS011;7928;43.614;1.456;2023-04-24T04:51:27;6.83;;;1.60;;
15655;SDS011;7928;43.614;1.456;2023-04-24T04:53:55;7.03;;;2.00;;
15655;SDS011;7928;43.614;1.456;2023-04-24T04:56:22;4.80;;;1.90;;
15655;SDS011;7928;43.614;1.456;2023-04-24T04:58:49;8.07;;;1.67;;
15655;SDS011;7928;43.614;1.456;2023-04-24T05:01:16;5.37;;;1.77;;
15655;SDS011;7928;43.614;1.456;2023-04-24T05:03:43;7.83;;;2.20;;
15655;SDS011;7928;43.614;1.456;2023-04-24T05:06:11;7.97;;;1.70;;
15655;SDS011;7928;43.614;1.456;2023-04-24T05:08:38;9.13;;;2.00;;
15655;SDS011;7928;43.614;1.456;2023-04-24T05:11:05;7.43;;;1.40;;
15655;SDS011;7928;43.614;1.456;2023-04-24T05:13:33;6.87;;;1.80;;
15655;SDS011;7928;43.614;1.456;2023-04-24T05:16:00;6.33;;;1.87;;
15655;SDS011;7928;43.614;1.456;2023-04-24T05:18:27;5.83;;;1.70;;
15655;SDS011;7928;43.614;1.456;2023-04-24T05:20:54;5.53;;;1.60;;
15655;SDS011;7928;43.614;1.456;2023-04-24T05:23:22;5.67;;;1.60;;
15655;SDS011;7928;43.614;1.456;2023-04-24T05:25:49;8.37;;;2.33;;
15655;SDS011;7928;43.614;1.456;2023-04-24T05:28:16;8.60;;;2.20;;
15655;SDS011;7928;43.614;1.456;2023-04-24T05:30:43;7.97;;;2.20;;
15655;SDS011;7928;43.614;1.456;2023-04-24T05:33:10;7.00;;;1.60;;
15655;SDS011;7928;43.614;1.456;2023-04-24T05:35:39;8.97;;;2.10;;
15655;SDS011;7928;43.614;1.456;2023-04-24T05:38:10;6.57;;;2.73;;
15655;SDS011;7928;43.614;1.456;2023-04-24T05:40:39;4.67;;;1.83;;
15655;SDS011;7928;43.614;1.456;2023-04-24T05:43:06;9.40;;;2.10;;
15655;SDS011;7928;43.614;1.456;2023-04-24T05:45:33;7.00;;;1.80;;
15655;SDS011;7928;43.614;1.456;2023-04-24T05:48:01;7.87;;;2.40;;
15655;SDS011;7928;43.614;1.456;2023-04-24T05:50:28;8.07;;;2.10;;
15655;SDS011;7928;43.614;1.456;2023-04-24T05:52:55;8.03;;;1.90;;
15655;SDS011;7928;43.614;1.456;2023-04-24T05:55:23;9.70;;;2.03;;
15655;SDS011;7928;43.614;1.456;2023-04-24T05:57:51;8.53;;;2.20;;
15655;SDS011;7928;43.614;1.456;2023-04-24T06:00:18;7.90;;;2.30;;
15655;SDS011;7928;43.614;1.456;2023-04-24T06:02:46;12.17;;;2.17;;
15655;SDS011;7928;43.614;1.456;2023-04-24T06:05:13;7.97;;;1.93;;
15655;SDS011;7928;43.614;1.456;2023-04-24T06:07:40;6.07;;;1.83;;
15655;SDS011;7928;43.614;1.456;2023-04-24T06:10:08;10.27;;;2.43;;
15655;SDS011;7928;43.614;1.456;2023-04-24T06:12:35;5.63;;;1.50;;
15655;SDS011;7928;43.614;1.456;2023-04-24T06:15:04;10.40;;;2.17;;
15655;SDS011;7928;43.614;1.456;2023-04-24T06:17:33;4.63;;;1.70;;
15655;SDS011;7928;43.614;1.456;2023-04-24T06:20:00;9.77;;;2.40;;
15655;SDS011;7928;43.614;1.456;2023-04-24T06:22:28;9.50;;;1.77;;
15655;SDS011;7928;43.614;1.456;2023-04-24T06:24:55;7.60;;;2.10;;
15655;SDS011;7928;43.614;1.456;2023-04-24T06:27:22;4.87;;;2.07;;
15655;SDS011;7928;43.614;1.456;2023-04-24T06:29:49;16.33;;;8.23;;
15655;SDS011;7928;43.614;1.456;2023-04-24T06:32:21;10.27;;;3.30;;
15655;SDS011;7928;43.614;1.456;2023-04-24T06:34:48;8.30;;;1.90;;
15655;SDS011;7928;43.614;1.456;2023-04-24T06:37:15;6.53;;;1.97;;
15655;SDS011;7928;43.614;1.456;2023-04-24T06:39:42;8.13;;;2.07;;
15655;SDS011;7928;43.614;1.456;2023-04-24T06:42:09;5.90;;;2.07;;
15655;SDS011;7928;43.614;1.456;2023-04-24T06:44:36;11.20;;;2.27;;
15655;SDS011;7928;43.614;1.456;2023-04-24T06:47:06;7.60;;;2.37;;
15655;SDS011;7928;43.614;1.456;2023-04-24T06:49:35;7.37;;;1.73;;
15655;SDS011;7928;43.614;1.456;2023-04-24T06:52:02;8.87;;;2.07;;
15655;SDS011;7928;43.614;1.456;2023-04-24T06:54:29;7.97;;;2.57;;
15655;SDS011;7928;43.614;1.456;2023-04-24T06:56:56;7.37;;;2.07;;
15655;SDS011;7928;43.614;1.456;2023-04-24T06:59:23;5.13;;;1.77;;
15655;SDS011;7928;43.614;1.456;2023-04-24T07:01:50;6.03;;;2.07;;
15655;SDS011;7928;43.614;1.456;2023-04-24T07:04:17;8.70;;;2.20;;
15655;SDS011;7928;43.614;1.456;2023-04-24T07:06:46;7.63;;;1.80;;
15655;SDS011;7928;43.614;1.456;2023-04-24T07:09:14;5.93;;;1.90;;
15655;SDS011;7928;43.614;1.456;2023-04-24T07:11:43;8.53;;;2.40;;
15655;SDS011;7928;43.614;1.456;2023-04-24T07:14:10;6.57;;;1.80;;
15655;SDS011;7928;43.614;1.456;2023-04-24T07:16:37;6.57;;;1.50;;
15655;SDS011;7928;43.614;1.456;2023-04-24T07:19:04;6.73;;;1.80;;
15655;SDS011;7928;43.614;1.456;2023-04-24T07:21:32;5.20;;;1.80;;
15655;SDS011;7928;43.614;1.456;2023-04-24T07:24:00;4.47;;;1.40;;
15655;SDS011;7928;43.614;1.456;2023-04-24T07:26:29;4.03;;;1.73;;
15655;SDS011;7928;43.614;1.456;2023-04-24T07:28:56;6.27;;;1.70;;
15655;SDS011;7928;43.614;1.456;2023-04-24T07:31:23;8.20;;;1.60;;
15655;SDS011;7928;43.614;1.456;2023-04-24T07:33:50;7.43;;;1.63;;
15655;SDS011;7928;43.614;1.456;2023-04-24T07:36:17;7.33;;;1.63;;
15655;SDS011;7928;43.614;1.456;2023-04-24T07:38:45;4.57;;;1.33;;
15655;SDS011;7928;43.614;1.456;2023-04-24T07:41:13;5.03;;;1.60;;
15655;SDS011;7928;43.614;1.456;2023-04-24T07:43:41;7.47;;;2.00;;
15655;SDS011;7928;43.614;1.456;2023-04-24T07:46:08;6.20;;;1.80;;
15655;SDS011;7928;43.614;1.456;2023-04-24T07:48:35;5.70;;;1.77;;
15655;SDS011;7928;43.614;1.456;2023-04-24T07:51:02;4.63;;;1.10;;
15655;SDS011;7928;43.614;1.456;2023-04-24T07:53:29;2.67;;;1.00;;
15655;SDS011;7928;43.614;1.456;2023-04-24T07:55:56;3.93;;;1.17;;
15655;SDS011;7928;43.614;1.456;2023-04-24T07:58:25;5.87;;;1.73;;
15655;SDS011;7928;43.614;1.456;2023-04-24T08:00:52;3.30;;;1.10;;
15655;SDS011;7928;43.614;1.456;2023-04-24T08:03:19;3.23;;;0.80;;
15655;SDS011;7928;43.614;1.456;2023-04-24T08:05:46;5.13;;;1.20;;
15655;SDS011;7928;43.614;1.456;2023-04-24T08:08:13;4.50;;;0.90;;
15655;SDS011;7928;43.614;1.456;2023-04-24T08:10:40;5.17;;;1.10;;
15655;SDS011;7928;43.614;1.456;2023-04-24T08:13:07;5.73;;;1.07;;
15655;SDS011;7928;43.614;1.456;2023-04-24T08:15:37;3.73;;;1.10;;
15655;SDS011;7928;43.614;1.456;2023-04-24T08:18:05;5.87;;;1.20;;
15655;SDS011;7928;43.614;1.456;2023-04-24T08:20:32;2.93;;;1.17;;
15655;SDS011;7928;43.614;1.456;2023-04-24T08:22:59;4.20;;;1.40;;
15655;SDS011;7928;43.614;1.456;2023-04-24T08:25:26;4.03;;;1.10;;
15655;SDS011;7928;43.614;1.456;2023-04-24T08:27:53;4.50;;;1.27;;
15655;SDS011;7928;43.614;1.456;2023-04-24T08:30:20;3.33;;;1.17;;
15655;SDS011;7928;43.614;1.456;2023-04-24T08:32:49;3.73;;;0.60;;
15655;SDS011;7928;43.614;1.456;2023-04-24T08:35:16;5.80;;;1.20;;
15655;SDS011;7928;43.614;1.456;2023-04-24T08:37:43;5.50;;;1.10;;
15655;SDS011;7928;43.614;1.456;2023-04-24T08:40:12;5.00;;;0.93;;
15655;SDS011;7928;43.614;1.456;2023-04-24T08:42:41;4.50;;;0.70;;
15655;SDS011;7928;43.614;1.456;2023-04-24T08:45:09;4.77;;;0.73;;
15655;SDS011;7928;43.614;1.456;2023-04-24T08:47:38;3.10;;;0.73;;
15655;SDS011;7928;43.614;1.456;2023-04-24T08:50:08;2.37;;;0.90;;
15655;SDS011;7928;43.614;1.456;2023-04-24T08:52:36;2.43;;;0.90;;
15655;SDS011;7928;43.614;1.456;2023-04-24T08:55:03;3.07;;;1.00;;
15655;SDS011;7928;43.614;1.456;2023-04-24T08:57:31;4.57;;;0.90;;
15655;SDS011;7928;43.614;1.456;2023-04-24T09:00:01;4.50;;;0.97;;
15655;SDS011;7928;43.614;1.456;2023-04-24T09:02:29;3.70;;;1.00;;
15655;SDS011;7928;43.614;1.456;2023-04-24T09:04:59;7.20;;;1.73;;
15655;SDS011;7928;43.614;1.456;2023-04-24T09:07:29;3.60;;;1.17;;
15655;SDS011;7928;43.614;1.456;2023-04-24T09:09:58;4.17;;;1.20;;
15655;SDS011;7928;43.614;1.456;2023-04-24T09:12:26;3.07;;;0.87;;
15655;SDS011;7928;43.614;1.456;2023-04-24T09:14:53;4.40;;;0.97;;
15655;SDS011;7928;43.614;1.456;2023-04-24T09:17:21;3.03;;;0.90;;
15655;SDS011;7928;43.614;1.456;2023-04-24T09:19:48;3.80;;;0.70;;
15655;SDS011;7928;43.614;1.456;2023-04-24T09:22:15;3.80;;;0.90;;
15655;SDS011;7928;43.614;1.456;2023-04-24T09:24:44;2.80;;;1.20;;
15655;SDS011;7928;43.614;1.456;2023-04-24T09:27:12;1.97;;;0.80;;
15655;SDS011;7928;43.614;1.456;2023-04-24T09:29:42;3.57;;;0.77;;
15655;SDS011;7928;43.614;1.456;2023-04-24T09:32:20;4.30;;;0.93;;
15655;SDS011;7928;43.614;1.456;2023-04-24T09:35:04;2.83;;;0.73;;
15655;SDS011;7928;43.614;1.456;2023-04-24T09:37:34;4.30;;;1.13;;
15655;SDS011;7928;43.614;1.456;2023-04-24T09:40:10;2.83;;;0.83;;
15655;SDS011;7928;43.614;1.456;2023-04-24T09:42:38;3.10;;;0.70;;
15655;SDS011;7928;43.614;1.456;2023-04-24T09:45:08;3.37;;;0.80;;
15655;SDS011;7928;43.614;1.456;2023-04-24T09:47:36;3.17;;;0.87;;
15655;SDS011;7928;43.614;1.456;2023-04-24T09:50:10;1.53;;;0.70;;
15655;SDS011;7928;43.614;1.456;2023-04-24T09:52:39;3.87;;;1.20;;
15655;SDS011;7928;43.614;1.456;2023-04-24T09:55:13;3.43;;;1.00;;
15655;SDS011;7928;43.614;1.456;2023-04-24T09:57:49;4.13;;;1.00;;
15655;SDS011;7928;43.614;1.456;2023-04-24T10:00:26;3.13;;;0.77;;
15655;SDS011;7928;43.614;1.456;2023-04-24T10:02:54;3.40;;;0.80;;
15655;SDS011;7928;43.614;1.456;2023-04-24T10:05:23;2.37;;;0.70;;
15655;SDS011;7928;43.614;1.456;2023-04-24T10:07:55;2.93;;;1.00;;
15655;SDS011;7928;43.614;1.456;2023-04-24T10:10:24;3.07;;;0.90;;
15655;SDS011;7928;43.614;1.456;2023-04-24T10:12:51;4.07;;;1.10;;
15655;SDS011;7928;43.614;1.456;2023-04-24T10:15:19;1.33;;;0.37;;
15655;SDS011;7928;43.614;1.456;2023-04-24T10:17:47;3.43;;;1.00;;
15655;SDS011;7928;43.614;1.456;2023-04-24T10:20:17;1.47;;;0.70;;
15655;SDS011;7928;43.614;1.456;2023-04-24T10:22:46;2.43;;;0.60;;
15655;SDS011;7928;43.614;1.456;2023-04-24T10:25:16;3.07;;;0.70;;
15655;SDS011;7928;43.614;1.456;2023-04-24T10:27:46;5.77;;;1.17;;
15655;SDS011;7928;43.614;1.456;2023-04-24T10:30:14;2.23;;;0.60;;
15655;SDS011;7928;43.614;1.456;2023-04-24T10:32:42;3.30;;;1.13;;
15655;SDS011;7928;43.614;1.456;2023-04-24T10:35:09;6.07;;;1.87;;
15655;SDS011;7928;43.614;1.456;2023-04-24T10:37:39;2.13;;;0.60;;
15655;SDS011;7928;43.614;1.456;2023-04-24T10:40:11;3.60;;;0.60;;
15655;SDS011;7928;43.614;1.456;2023-04-24T10:42:42;8.70;;;2.10;;
15655;SDS011;7928;43.614;1.456;2023-04-24T10:45:17;4.73;;;0.77;;
15655;SDS011;7928;43.614;1.456;2023-04-24T10:47:53;4.00;;;1.40;;
15655;SDS011;7928;43.614;1.456;2023-04-24T10:50:24;5.23;;;1.03;;
15655;SDS011;7928;43.614;1.456;2023-04-24T10:52:52;3.47;;;1.10;;
15655;SDS011;7928;43.614;1.456;2023-04-24T10:58:11;3.33;;;1.00;;
15655;SDS011;7928;43.614;1.456;2023-04-24T11:00:39;2.57;;;0.80;;
15655;SDS011;7928;43.614;1.456;2023-04-24T11:03:12;2.87;;;1.00;;
15655;SDS011;7928;43.614;1.456;2023-04-24T11:05:56;3.90;;;0.90;;
15655;SDS011;7928;43.614;1.456;2023-04-24T11:08:28;3.37;;;1.37;;
15655;SDS011;7928;43.614;1.456;2023-04-24T11:11:07;3.20;;;0.80;;
15655;SDS011;7928;43.614;1.456;2023-04-24T11:16:30;7.77;;;1.10;;
15655;SDS011;7928;43.614;1.456;2023-04-24T11:19:02;2.83;;;0.70;;
15655;SDS011;7928;43.614;1.456;2023-04-24T11:21:31;6.17;;;1.03;;
15655;SDS011;7928;43.614;1.456;2023-04-24T11:23:58;3.43;;;0.90;;
15655;SDS011;7928;43.614;1.456;2023-04-24T11:27:07;4.10;;;1.07;;
15655;SDS011;7928;43.614;1.456;2023-04-24T11:29:40;2.30;;;0.87;;
15655;SDS011;7928;43.614;1.456;2023-04-24T11:32:23;6.77;;;1.10;;
15655;SDS011;7928;43.614;1.456;2023-04-24T11:34:52;3.17;;;0.80;;
15655;SDS011;7928;43.614;1.456;2023-04-24T11:37:21;2.53;;;0.73;;
15655;SDS011;7928;43.614;1.456;2023-04-24T11:39:50;4.43;;;0.83;;
15655;SDS011;7928;43.614;1.456;2023-04-24T11:42:18;3.23;;;1.10;;
15655;SDS011;7928;43.614;1.456;2023-04-24T11:44:47;3.40;;;0.93;;
15655;SDS011;7928;43.614;1.456;2023-04-24T11:47:15;3.57;;;0.93;;
15655;SDS011;7928;43.614;1.456;2023-04-24T11:49:43;4.97;;;0.90;;
15655;SDS011;7928;43.614;1.456;2023-04-24T11:52:11;4.30;;;0.90;;
15655;SDS011;7928;43.614;1.456;2023-04-24T11:54:46;2.53;;;0.70;;
15655;SDS011;7928;43.614;1.456;2023-04-24T11:57:15;3.00;;;0.90;;
15655;SDS011;7928;43.614;1.456;2023-04-24T11:59:42;4.10;;;0.97;;
15655;SDS011;7928;43.614;1.456;2023-04-24T12:02:17;3.37;;;1.20;;
15655;SDS011;7928;43.614;1.456;2023-04-24T12:04:48;3.40;;;1.00;;
15655;SDS011;7928;43.614;1.456;2023-04-24T12:07:15;6.13;;;1.50;;
15655;SDS011;7928;43.614;1.456;2023-04-24T12:09:43;7.67;;;1.60;;
15655;SDS011;7928;43.614;1.456;2023-04-24T12:12:10;3.50;;;1.17;;
15655;SDS011;7928;43.614;1.456;2023-04-24T12:14:47;5.03;;;1.10;;
15655;SDS011;7928;43.614;1.456;2023-04-24T12:17:15;4.37;;;1.67;;
15655;SDS011;7928;43.614;1.456;2023-04-24T12:19:47;10.30;;;1.37;;
15655;SDS011;7928;43.614;1.456;2023-04-24T12:22:15;3.67;;;1.00;;
15655;SDS011;7928;43.614;1.456;2023-04-24T12:24:55;4.30;;;1.20;;
15655;SDS011;7928;43.614;1.456;2023-04-24T12:27:28;3.50;;;0.90;;
15655;SDS011;7928;43.614;1.456;2023-04-24T12:29:57;2.43;;;0.83;;
15655;SDS011;7928;43.614;1.456;2023-04-24T12:32:25;2.03;;;0.80;;
15655;SDS011;7928;43.614;1.456;2023-04-24T12:34:53;5.43;;;0.97;;
15655;SDS011;7928;43.614;1.456;2023-04-24T12:37:22;2.77;;;1.03;;
15655;SDS011;7928;43.614;1.456;2023-04-24T12:40:00;7.37;;;1.23;;
15655;SDS011;7928;43.614;1.456;2023-04-24T12:42:29;1.90;;;1.00;;
15655;SDS011;7928;43.614;1.456;2023-04-24T12:44:57;4.03;;;2.37;;
15655;SDS011;7928;43.614;1.456;2023-04-24T12:47:25;7.07;;;1.17;;
15655;SDS011;7928;43.614;1.456;2023-04-24T12:49:54;3.33;;;0.90;;
15655;SDS011;7928;43.614;1.456;2023-04-24T12:52:21;2.87;;;0.90;;
15655;SDS011;7928;43.614;1.456;2023-04-24T12:54:49;3.45;;;1.02;;
15655;SDS011;7928;43.614;1.456;2023-04-24T12:57:16;3.00;;;1.30;;
15655;SDS011;7928;43.614;1.456;2023-04-24T12:59:44;3.17;;;0.70;;
15655;SDS011;7928;43.614;1.456;2023-04-24T13:02:11;6.75;;;1.48;;
15655;SDS011;7928;43.614;1.456;2023-04-24T13:04:38;4.93;;;0.75;;
15655;SDS011;7928;43.614;1.456;2023-04-24T13:07:06;5.10;;;1.20;;
15655;SDS011;7928;43.614;1.456;2023-04-24T13:09:34;2.95;;;1.00;;
15655;SDS011;7928;43.614;1.456;2023-04-24T13:12:01;2.45;;;1.42;;
15655;SDS011;7928;43.614;1.456;2023-04-24T13:14:28;2.72;;;1.63;;
15655;SDS011;7928;43.614;1.456;2023-04-24T13:16:55;4.25;;;1.08;;
15655;SDS011;7928;43.614;1.456;2023-04-24T13:19:23;2.40;;;1.27;;
15655;SDS011;7928;43.614;1.456;2023-04-24T13:21:51;1.30;;;0.77;;
15655;SDS011;7928;43.614;1.456;2023-04-24T13:24:20;2.25;;;0.93;;
15655;SDS011;7928;43.614;1.456;2023-04-24T13:26:49;3.78;;;2.80;;
15655;SDS011;7928;43.614;1.456;2023-04-24T13:29:19;3.28;;;1.10;;
15655;SDS011;7928;43.614;1.456;2023-04-24T13:31:46;3.20;;;1.07;;
15655;SDS011;7928;43.614;1.456;2023-04-24T13:34:14;2.03;;;0.73;;
15655;SDS011;7928;43.614;1.456;2023-04-24T13:36:41;2.87;;;0.80;;
15655;SDS011;7928;43.614;1.456;2023-04-24T13:39:08;4.67;;;2.67;;
15655;SDS011;7928;43.614;1.456;2023-04-24T13:41:37;4.00;;;1.03;;
15655;SDS011;7928;43.614;1.456;2023-04-24T13:44:04;3.15;;;1.10;;
15655;SDS011;7928;43.614;1.456;2023-04-24T13:46:32;3.20;;;1.10;;
15655;SDS011;7928;43.614;1.456;2023-04-24T13:48:59;2.72;;;0.70;;
15655;SDS011;7928;43.614;1.456;2023-04-24T13:51:26;4.57;;;1.02;;
15655;SDS011;7928;43.614;1.456;2023-04-24T13:53:53;1.42;;;0.50;;
15655;SDS011;7928;43.614;1.456;2023-04-24T13:56:20;5.55;;;1.00;;
15655;SDS011;7928;43.614;1.456;2023-04-24T13:58:51;2.28;;;0.73;;
15655;SDS011;7928;43.614;1.456;2023-04-24T14:01:19;2.72;;;0.70;;
15655;SDS011;7928;43.614;1.456;2023-04-24T14:03:46;5.53;;;1.40;;
15655;SDS011;7928;43.614;1.456;2023-04-24T14:06:13;2.93;;;0.73;;
15655;SDS011;7928;43.614;1.456;2023-04-24T14:08:40;2.55;;;0.80;;
15655;SDS011;7928;43.614;1.456;2023-04-24T14:11:07;3.93;;;3.10;;
15655;SDS011;7928;43.614;1.456;2023-04-24T14:13:34;2.97;;;0.97;;
15655;SDS011;7928;43.614;1.456;2023-04-24T14:16:04;2.35;;;0.98;;
15655;SDS011;7928;43.614;1.456;2023-04-24T14:18:31;2.30;;;0.70;;
15655;SDS011;7928;43.614;1.456;2023-04-24T14:20:59;3.50;;;0.90;;
15655;SDS011;7928;43.614;1.456;2023-04-24T14:23:26;2.58;;;0.85;;
15655;SDS011;7928;43.614;1.456;2023-04-24T14:25:53;2.75;;;0.88;;
15655;SDS011;7928;43.614;1.456;2023-04-24T14:28:20;4.53;;;0.93;;
15655;SDS011;7928;43.614;1.456;2023-04-24T14:30:48;4.87;;;1.00;;
15655;SDS011;7928;43.614;1.456;2023-04-24T14:33:16;2.88;;;0.82;;
15655;SDS011;7928;43.614;1.456;2023-04-24T14:35:43;4.15;;;1.13;;
15655;SDS011;7928;43.614;1.456;2023-04-24T14:38:11;3.23;;;0.77;;
15655;SDS011;7928;43.614;1.456;2023-04-24T14:40:38;2.67;;;1.00;;
15655;SDS011;7928;43.614;1.456;2023-04-24T14:43:05;1.20;;;0.53;;
15655;SDS011;7928;43.614;1.456;2023-04-24T14:45:32;2.00;;;0.80;;
15655;SDS011;7928;43.614;1.456;2023-04-24T14:47:59;3.07;;;0.63;;
15655;SDS011;7928;43.614;1.456;2023-04-24T14:50:28;4.00;;;1.20;;
15655;SDS011;7928;43.614;1.456;2023-04-24T14:52:55;2.57;;;0.80;;
15655;SDS011;7928;43.614;1.456;2023-04-24T14:55:23;1.87;;;0.87;;
15655;SDS011;7928;43.614;1.456;2023-04-24T14:57:51;2.07;;;0.60;;
15655;SDS011;7928;43.614;1.456;2023-04-24T15:00:18;4.63;;;0.57;;
15655;SDS011;7928;43.614;1.456;2023-04-24T15:02:48;1.50;;;0.50;;
15655;SDS011;7928;43.614;1.456;2023-04-24T15:05:15;4.10;;;1.00;;
15655;SDS011;7928;43.614;1.456;2023-04-24T15:07:43;4.40;;;1.20;;
15655;SDS011;7928;43.614;1.456;2023-04-24T15:10:11;2.37;;;1.00;;
15655;SDS011;7928;43.614;1.456;2023-04-24T15:12:38;3.80;;;0.70;;